sensor_id;sensor_type;location;lat;lon;timestamp;P1;durP1;ratioP1;P2;durP2;ratioP2
79137;SDS011;68544;45.566;10.238;2024-02-26T00:01:12;6.00;;;3.93;;
79137;SDS011;68544;45.566;10.238;2024-02-26T00:03:37;9.50;;;4.00;;
79137;SDS011;68544;45.566;10.238;2024-02-26T00:06:03;7.18;;;4.07;;
79137;SDS011;68544;45.566;10.238;2024-02-26T00:08:29;7.83;;;4.23;;
79137;SDS011;68544;45.566;10.238;2024-02-26T00:10:54;6.50;;;3.77;;
79137;SDS011;68544;45.566;10.238;2024-02-26T00:13:20;6.23;;;4.07;;
79137;SDS011;68544;45.566;10.238;2024-02-26T00:15:45;5.53;;;3.90;;
79137;SDS011;68544;45.566;10.238;2024-02-26T00:18:11;7.35;;;4.60;;
79137;SDS011;68544;45.566;10.238;2024-02-26T00:20:36;4.60;;;3.37;;
79137;SDS011;68544;45.566;10.238;2024-02-26T00:23:01;4.23;;;3.07;;
79137;SDS011;68544;45.566;10.238;2024-02-26T00:25:27;7.67;;;3.87;;
79137;SDS011;68544;45.566;10.238;2024-02-26T00:27:52;5.60;;;4.43;;
79137;SDS011;68544;45.566;10.238;2024-02-26T00:30:17;7.20;;;3.77;;
79137;SDS011;68544;45.566;10.238;2024-02-26T00:32:43;7.43;;;4.20;;
79137;SDS011;68544;45.566;10.238;2024-02-26T00:35:08;7.57;;;4.67;;
79137;SDS011;68544;45.566;10.238;2024-02-26T00:37:34;5.35;;;3.92;;
79137;SDS011;68544;45.566;10.238;2024-02-26T00:40:00;5.43;;;3.83;;
79137;SDS011;68544;45.566;10.238;2024-02-26T00:42:25;4.70;;;3.80;;
79137;SDS011;68544;45.566;10.238;2024-02-26T00:44:51;7.57;;;4.17;;
79137;SDS011;68544;45.566;10.238;2024-02-26T00:47:16;3.33;;;2.80;;
79137;SDS011;68544;45.566;10.238;2024-02-26T00:49:41;7.67;;;4.57;;
79137;SDS011;68544;45.566;10.238;2024-02-26T00:52:06;7.30;;;4.43;;
79137;SDS011;68544;45.566;10.238;2024-02-26T00:54:32;6.20;;;4.13;;
79137;SDS011;68544;45.566;10.238;2024-02-26T00:56:57;7.80;;;3.57;;
79137;SDS011;68544;45.566;10.238;2024-02-26T00:59:22;5.90;;;4.43;;
79137;SDS011;68544;45.566;10.238;2024-02-26T01:01:48;5.37;;;3.33;;
79137;SDS011;68544;45.566;10.238;2024-02-26T01:04:13;5.60;;;4.27;;
79137;SDS011;68544;45.566;10.238;2024-02-26T01:06:38;4.57;;;4.00;;
79137;SDS011;68544;45.566;10.238;2024-02-26T01:09:04;4.83;;;4.03;;
79137;SDS011;68544;45.566;10.238;2024-02-26T01:11:29;6.20;;;3.90;;
79137;SDS011;68544;45.566;10.238;2024-02-26T01:13:54;5.03;;;4.03;;
79137;SDS011;68544;45.566;10.238;2024-02-26T01:16:22;7.40;;;3.33;;
79137;SDS011;68544;45.566;10.238;2024-02-26T01:18:50;5.72;;;3.65;;
79137;SDS011;68544;45.566;10.238;2024-02-26T01:21:15;5.83;;;3.70;;
79137;SDS011;68544;45.566;10.238;2024-02-26T01:23:41;4.80;;;3.43;;
79137;SDS011;68544;45.566;10.238;2024-02-26T01:26:07;5.00;;;3.60;;
79137;SDS011;68544;45.566;10.238;2024-02-26T01:28:32;4.33;;;3.10;;
79137;SDS011;68544;45.566;10.238;2024-02-26T01:30:58;5.63;;;3.70;;
79137;SDS011;68544;45.566;10.238;2024-02-26T01:33:25;4.55;;;3.78;;
79137;SDS011;68544;45.566;10.238;2024-02-26T01:35:51;7.30;;;4.00;;
79137;SDS011;68544;45.566;10.238;2024-02-26T01:38:16;6.63;;;3.70;;
79137;SDS011;68544;45.566;10.238;2024-02-26T01:40:41;5.70;;;3.60;;
79137;SDS011;68544;45.566;10.238;2024-02-26T01:43:07;5.10;;;3.60;;
79137;SDS011;68544;45.566;10.238;2024-02-26T01:45:32;7.30;;;3.97;;
79137;SDS011;68544;45.566;10.238;2024-02-26T01:47:57;6.37;;;3.60;;
79137;SDS011;68544;45.566;10.238;2024-02-26T01:50:23;4.70;;;3.93;;
79137;SDS011;68544;45.566;10.238;2024-02-26T01:52:49;5.25;;;3.72;;
79137;SDS011;68544;45.566;10.238;2024-02-26T01:55:16;6.25;;;4.22;;
79137;SDS011;68544;45.566;10.238;2024-02-26T01:57:43;3.90;;;3.50;;
79137;SDS011;68544;45.566;10.238;2024-02-26T02:00:10;5.75;;;3.72;;
79137;SDS011;68544;45.566;10.238;2024-02-26T02:02:36;5.85;;;3.45;;
79137;SDS011;68544;45.566;10.238;2024-02-26T02:05:03;4.82;;;3.33;;
79137;SDS011;68544;45.566;10.238;2024-02-26T02:07:30;5.65;;;3.15;;
79137;SDS011;68544;45.566;10.238;2024-02-26T02:09:56;4.40;;;3.30;;
79137;SDS011;68544;45.566;10.238;2024-02-26T02:12:21;4.53;;;3.63;;
79137;SDS011;68544;45.566;10.238;2024-02-26T02:14:47;4.53;;;3.17;;
79137;SDS011;68544;45.566;10.238;2024-02-26T02:17:12;2.37;;;2.13;;
79137;SDS011;68544;45.566;10.238;2024-02-26T02:19:38;7.73;;;3.60;;
79137;SDS011;68544;45.566;10.238;2024-02-26T02:22:03;5.77;;;3.90;;
79137;SDS011;68544;45.566;10.238;2024-02-26T02:24:28;4.50;;;3.50;;
79137;SDS011;68544;45.566;10.238;2024-02-26T02:26:54;5.20;;;3.67;;
79137;SDS011;68544;45.566;10.238;2024-02-26T02:29:20;4.43;;;3.13;;
79137;SDS011;68544;45.566;10.238;2024-02-26T02:31:46;7.10;;;3.20;;
79137;SDS011;68544;45.566;10.238;2024-02-26T02:34:11;2.67;;;2.37;;
79137;SDS011;68544;45.566;10.238;2024-02-26T02:36:52;4.57;;;3.10;;
79137;SDS011;68544;45.566;10.238;2024-02-26T02:39:18;4.13;;;3.38;;
79137;SDS011;68544;45.566;10.238;2024-02-26T02:41:43;3.37;;;2.30;;
79137;SDS011;68544;45.566;10.238;2024-02-26T02:44:09;5.33;;;3.43;;
79137;SDS011;68544;45.566;10.238;2024-02-26T02:46:34;4.93;;;3.17;;
79137;SDS011;68544;45.566;10.238;2024-02-26T02:49:00;4.05;;;2.97;;
79137;SDS011;68544;45.566;10.238;2024-02-26T02:51:26;5.50;;;3.60;;
79137;SDS011;68544;45.566;10.238;2024-02-26T02:53:51;4.57;;;3.53;;
79137;SDS011;68544;45.566;10.238;2024-02-26T02:56:16;4.53;;;2.10;;
79137;SDS011;68544;45.566;10.238;2024-02-26T02:58:42;4.97;;;3.43;;
79137;SDS011;68544;45.566;10.238;2024-02-26T03:01:07;5.77;;;3.07;;
79137;SDS011;68544;45.566;10.238;2024-02-26T03:03:32;5.57;;;3.77;;
79137;SDS011;68544;45.566;10.238;2024-02-26T03:05:58;4.43;;;2.90;;
79137;SDS011;68544;45.566;10.238;2024-02-26T03:08:23;5.33;;;3.30;;
79137;SDS011;68544;45.566;10.238;2024-02-26T03:10:50;5.78;;;3.08;;
79137;SDS011;68544;45.566;10.238;2024-02-26T03:13:16;3.50;;;3.00;;
79137;SDS011;68544;45.566;10.238;2024-02-26T03:15:41;4.50;;;2.87;;
79137;SDS011;68544;45.566;10.238;2024-02-26T03:18:07;6.27;;;3.40;;
79137;SDS011;68544;45.566;10.238;2024-02-26T03:20:32;3.50;;;2.90;;
79137;SDS011;68544;45.566;10.238;2024-02-26T03:22:58;6.50;;;3.57;;
79137;SDS011;68544;45.566;10.238;2024-02-26T03:25:24;5.95;;;3.20;;
79137;SDS011;68544;45.566;10.238;2024-02-26T03:27:49;6.40;;;3.87;;
79137;SDS011;68544;45.566;10.238;2024-02-26T03:30:15;4.05;;;3.03;;
79137;SDS011;68544;45.566;10.238;2024-02-26T03:32:40;5.87;;;3.20;;
79137;SDS011;68544;45.566;10.238;2024-02-26T03:35:06;5.23;;;3.20;;
79137;SDS011;68544;45.566;10.238;2024-02-26T03:37:32;4.93;;;3.10;;
79137;SDS011;68544;45.566;10.238;2024-02-26T03:39:58;6.70;;;3.20;;
79137;SDS011;68544;45.566;10.238;2024-02-26T03:42:23;3.53;;;3.00;;
79137;SDS011;68544;45.566;10.238;2024-02-26T03:44:48;4.27;;;2.87;;
79137;SDS011;68544;45.566;10.238;2024-02-26T03:47:14;4.23;;;2.73;;
79137;SDS011;68544;45.566;10.238;2024-02-26T03:49:39;3.50;;;2.80;;
79137;SDS011;68544;45.566;10.238;2024-02-26T03:52:05;5.73;;;3.20;;
79137;SDS011;68544;45.566;10.238;2024-02-26T03:54:30;4.20;;;3.10;;
79137;SDS011;68544;45.566;10.238;2024-02-26T03:56:55;2.63;;;2.33;;
79137;SDS011;68544;45.566;10.238;2024-02-26T03:59:21;3.00;;;2.50;;
79137;SDS011;68544;45.566;10.238;2024-02-26T04:01:48;4.13;;;3.10;;
79137;SDS011;68544;45.566;10.238;2024-02-26T04:04:14;5.85;;;3.47;;
79137;SDS011;68544;45.566;10.238;2024-02-26T04:06:43;4.57;;;2.87;;
79137;SDS011;68544;45.566;10.238;2024-02-26T04:09:09;3.95;;;3.10;;
79137;SDS011;68544;45.566;10.238;2024-02-26T04:11:35;4.80;;;3.10;;
79137;SDS011;68544;45.566;10.238;2024-02-26T04:14:00;5.33;;;3.13;;
79137;SDS011;68544;45.566;10.238;2024-02-26T04:16:26;5.60;;;3.07;;
79137;SDS011;68544;45.566;10.238;2024-02-26T04:18:51;4.90;;;3.20;;
79137;SDS011;68544;45.566;10.238;2024-02-26T04:21:18;4.50;;;3.17;;
79137;SDS011;68544;45.566;10.238;2024-02-26T04:23:43;2.67;;;2.43;;
79137;SDS011;68544;45.566;10.238;2024-02-26T04:26:09;4.70;;;3.17;;
79137;SDS011;68544;45.566;10.238;2024-02-26T04:28:34;5.07;;;3.60;;
79137;SDS011;68544;45.566;10.238;2024-02-26T04:31:00;4.85;;;3.10;;
79137;SDS011;68544;45.566;10.238;2024-02-26T04:33:25;4.77;;;3.43;;
79137;SDS011;68544;45.566;10.238;2024-02-26T04:35:51;4.83;;;3.20;;
79137;SDS011;68544;45.566;10.238;2024-02-26T04:38:16;5.70;;;3.17;;
79137;SDS011;68544;45.566;10.238;2024-02-26T04:40:41;4.67;;;2.83;;
79137;SDS011;68544;45.566;10.238;2024-02-26T04:43:07;4.37;;;3.30;;
79137;SDS011;68544;45.566;10.238;2024-02-26T04:45:32;4.90;;;3.27;;
79137;SDS011;68544;45.566;10.238;2024-02-26T04:47:59;5.13;;;3.10;;
79137;SDS011;68544;45.566;10.238;2024-02-26T04:50:24;8.23;;;4.30;;
79137;SDS011;68544;45.566;10.238;2024-02-26T04:52:49;5.40;;;3.30;;
79137;SDS011;68544;45.566;10.238;2024-02-26T04:55:15;4.23;;;3.13;;
79137;SDS011;68544;45.566;10.238;2024-02-26T04:57:40;6.27;;;3.47;;
79137;SDS011;68544;45.566;10.238;2024-02-26T05:00:05;4.40;;;3.60;;
79137;SDS011;68544;45.566;10.238;2024-02-26T05:02:31;3.78;;;3.38;;
79137;SDS011;68544;45.566;10.238;2024-02-26T05:04:58;3.83;;;3.30;;
79137;SDS011;68544;45.566;10.238;2024-02-26T05:07:23;6.87;;;3.67;;
79137;SDS011;68544;45.566;10.238;2024-02-26T05:09:49;5.07;;;3.33;;
79137;SDS011;68544;45.566;10.238;2024-02-26T05:12:14;5.43;;;3.30;;
79137;SDS011;68544;45.566;10.238;2024-02-26T05:14:40;6.90;;;3.00;;
79137;SDS011;68544;45.566;10.238;2024-02-26T05:17:05;6.30;;;3.60;;
79137;SDS011;68544;45.566;10.238;2024-02-26T05:19:31;4.50;;;3.17;;
79137;SDS011;68544;45.566;10.238;2024-02-26T05:21:56;4.47;;;3.00;;
79137;SDS011;68544;45.566;10.238;2024-02-26T05:24:22;3.43;;;2.83;;
79137;SDS011;68544;45.566;10.238;2024-02-26T05:26:47;5.43;;;3.27;;
79137;SDS011;68544;45.566;10.238;2024-02-26T05:29:13;4.40;;;3.20;;
79137;SDS011;68544;45.566;10.238;2024-02-26T05:31:38;3.63;;;3.00;;
79137;SDS011;68544;45.566;10.238;2024-02-26T05:34:03;5.63;;;3.50;;
79137;SDS011;68544;45.566;10.238;2024-02-26T05:36:29;5.83;;;3.40;;
79137;SDS011;68544;45.566;10.238;2024-02-26T05:38:58;4.15;;;2.63;;
79137;SDS011;68544;45.566;10.238;2024-02-26T05:41:26;4.38;;;2.67;;
79137;SDS011;68544;45.566;10.238;2024-02-26T05:43:52;4.73;;;2.93;;
79137;SDS011;68544;45.566;10.238;2024-02-26T05:46:18;4.53;;;3.42;;
79137;SDS011;68544;45.566;10.238;2024-02-26T05:48:44;6.15;;;3.28;;
79137;SDS011;68544;45.566;10.238;2024-02-26T05:51:12;4.28;;;3.25;;
79137;SDS011;68544;45.566;10.238;2024-02-26T05:53:37;4.03;;;3.10;;
79137;SDS011;68544;45.566;10.238;2024-02-26T05:56:03;3.93;;;3.20;;
79137;SDS011;68544;45.566;10.238;2024-02-26T05:58:28;5.28;;;3.47;;
79137;SDS011;68544;45.566;10.238;2024-02-26T06:00:54;5.73;;;3.60;;
79137;SDS011;68544;45.566;10.238;2024-02-26T06:03:19;4.10;;;3.33;;
79137;SDS011;68544;45.566;10.238;2024-02-26T06:05:45;6.13;;;3.87;;
79137;SDS011;68544;45.566;10.238;2024-02-26T06:08:11;6.88;;;3.53;;
79137;SDS011;68544;45.566;10.238;2024-02-26T06:10:36;6.57;;;3.77;;
79137;SDS011;68544;45.566;10.238;2024-02-26T06:13:01;5.07;;;3.67;;
79137;SDS011;68544;45.566;10.238;2024-02-26T06:15:27;4.13;;;3.33;;
79137;SDS011;68544;45.566;10.238;2024-02-26T06:17:52;3.33;;;2.83;;
79137;SDS011;68544;45.566;10.238;2024-02-26T06:20:17;5.23;;;3.97;;
79137;SDS011;68544;45.566;10.238;2024-02-26T06:22:43;8.20;;;4.70;;
79137;SDS011;68544;45.566;10.238;2024-02-26T06:25:08;6.13;;;4.40;;
79137;SDS011;68544;45.566;10.238;2024-02-26T06:27:34;6.27;;;4.40;;
79137;SDS011;68544;45.566;10.238;2024-02-26T06:30:00;5.10;;;3.40;;
79137;SDS011;68544;45.566;10.238;2024-02-26T06:32:25;6.03;;;4.73;;
79137;SDS011;68544;45.566;10.238;2024-02-26T06:34:52;6.78;;;5.15;;
79137;SDS011;68544;45.566;10.238;2024-02-26T06:37:18;5.70;;;4.57;;
79137;SDS011;68544;45.566;10.238;2024-02-26T06:39:43;4.77;;;3.90;;
79137;SDS011;68544;45.566;10.238;2024-02-26T06:42:08;5.90;;;4.50;;
79137;SDS011;68544;45.566;10.238;2024-02-26T06:44:34;4.50;;;3.27;;
79137;SDS011;68544;45.566;10.238;2024-02-26T06:46:59;6.47;;;4.37;;
79137;SDS011;68544;45.566;10.238;2024-02-26T06:49:25;6.07;;;4.85;;
79137;SDS011;68544;45.566;10.238;2024-02-26T06:51:51;4.97;;;4.47;;
79137;SDS011;68544;45.566;10.238;2024-02-26T06:54:16;5.57;;;5.07;;
79137;SDS011;68544;45.566;10.238;2024-02-26T06:56:42;6.53;;;4.90;;
79137;SDS011;68544;45.566;10.238;2024-02-26T06:59:07;5.97;;;5.20;;
79137;SDS011;68544;45.566;10.238;2024-02-26T07:01:32;7.93;;;4.77;;
79137;SDS011;68544;45.566;10.238;2024-02-26T07:03:58;7.00;;;4.70;;
79137;SDS011;68544;45.566;10.238;2024-02-26T07:06:23;7.30;;;5.10;;
79137;SDS011;68544;45.566;10.238;2024-02-26T07:08:48;5.93;;;4.57;;
79137;SDS011;68544;45.566;10.238;2024-02-26T07:11:13;5.47;;;4.83;;
79137;SDS011;68544;45.566;10.238;2024-02-26T07:13:39;4.90;;;4.33;;
79137;SDS011;68544;45.566;10.238;2024-02-26T07:16:04;9.23;;;4.90;;
79137;SDS011;68544;45.566;10.238;2024-02-26T07:18:30;6.75;;;4.93;;
79137;SDS011;68544;45.566;10.238;2024-02-26T07:20:55;4.83;;;4.20;;
79137;SDS011;68544;45.566;10.238;2024-02-26T07:23:21;5.37;;;3.40;;
79137;SDS011;68544;45.566;10.238;2024-02-26T07:25:46;4.33;;;2.97;;
79137;SDS011;68544;45.566;10.238;2024-02-26T07:28:13;4.63;;;3.70;;
79137;SDS011;68544;45.566;10.238;2024-02-26T07:30:39;6.43;;;3.97;;
79137;SDS011;68544;45.566;10.238;2024-02-26T07:33:04;4.97;;;3.70;;
79137;SDS011;68544;45.566;10.238;2024-02-26T07:35:30;3.67;;;3.03;;
79137;SDS011;68544;45.566;10.238;2024-02-26T07:37:55;5.80;;;3.33;;
79137;SDS011;68544;45.566;10.238;2024-02-26T07:40:20;6.03;;;3.67;;
79137;SDS011;68544;45.566;10.238;2024-02-26T07:42:46;3.75;;;3.25;;
79137;SDS011;68544;45.566;10.238;2024-02-26T07:45:11;4.07;;;2.87;;
79137;SDS011;68544;45.566;10.238;2024-02-26T07:47:36;5.03;;;2.77;;
79137;SDS011;68544;45.566;10.238;2024-02-26T07:50:05;4.15;;;2.35;;
79137;SDS011;68544;45.566;10.238;2024-02-26T07:54:57;3.87;;;2.33;;
79137;SDS011;68544;45.566;10.238;2024-02-26T07:57:23;3.83;;;1.90;;
79137;SDS011;68544;45.566;10.238;2024-02-26T07:59:48;2.17;;;1.70;;
79137;SDS011;68544;45.566;10.238;2024-02-26T08:02:14;3.90;;;2.50;;
79137;SDS011;68544;45.566;10.238;2024-02-26T08:04:40;3.40;;;2.65;;
79137;SDS011;68544;45.566;10.238;2024-02-26T08:07:06;4.00;;;2.17;;
79137;SDS011;68544;45.566;10.238;2024-02-26T08:09:31;4.93;;;2.50;;
79137;SDS011;68544;45.566;10.238;2024-02-26T08:11:56;2.73;;;1.80;;
79137;SDS011;68544;45.566;10.238;2024-02-26T08:14:21;3.00;;;2.07;;
79137;SDS011;68544;45.566;10.238;2024-02-26T08:16:47;3.50;;;1.80;;
79137;SDS011;68544;45.566;10.238;2024-02-26T08:19:12;4.07;;;2.00;;
79137;SDS011;68544;45.566;10.238;2024-02-26T08:21:39;3.80;;;2.03;;
79137;SDS011;68544;45.566;10.238;2024-02-26T08:24:05;4.60;;;2.17;;
79137;SDS011;68544;45.566;10.238;2024-02-26T08:26:30;5.47;;;2.37;;
79137;SDS011;68544;45.566;10.238;2024-02-26T08:28:56;3.60;;;2.43;;
79137;SDS011;68544;45.566;10.238;2024-02-26T08:31:23;6.28;;;2.90;;
79137;SDS011;68544;45.566;10.238;2024-02-26T08:33:48;6.30;;;2.97;;
79137;SDS011;68544;45.566;10.238;2024-02-26T08:36:14;3.93;;;2.47;;
79137;SDS011;68544;45.566;10.238;2024-02-26T08:38:39;3.47;;;2.27;;
79137;SDS011;68544;45.566;10.238;2024-02-26T08:41:04;3.23;;;2.60;;
79137;SDS011;68544;45.566;10.238;2024-02-26T08:43:30;3.63;;;2.07;;
79137;SDS011;68544;45.566;10.238;2024-02-26T08:45:56;4.53;;;2.47;;
79137;SDS011;68544;45.566;10.238;2024-02-26T08:48:22;3.47;;;2.38;;
79137;SDS011;68544;45.566;10.238;2024-02-26T08:50:47;3.47;;;2.57;;
79137;SDS011;68544;45.566;10.238;2024-02-26T08:53:12;4.07;;;2.80;;
79137;SDS011;68544;45.566;10.238;2024-02-26T08:55:38;5.60;;;3.90;;
79137;SDS011;68544;45.566;10.238;2024-02-26T08:58:03;6.57;;;5.07;;
79137;SDS011;68544;45.566;10.238;2024-02-26T09:00:28;7.97;;;5.17;;
79137;SDS011;68544;45.566;10.238;2024-02-26T09:02:54;4.93;;;2.80;;
79137;SDS011;68544;45.566;10.238;2024-02-26T09:05:19;3.13;;;2.27;;
79137;SDS011;68544;45.566;10.238;2024-02-26T09:07:44;3.47;;;2.20;;
79137;SDS011;68544;45.566;10.238;2024-02-26T09:10:11;4.53;;;2.20;;
79137;SDS011;68544;45.566;10.238;2024-02-26T09:12:37;2.57;;;1.63;;
79137;SDS011;68544;45.566;10.238;2024-02-26T09:15:03;4.13;;;2.00;;
79137;SDS011;68544;45.566;10.238;2024-02-26T09:17:28;3.50;;;2.10;;
79137;SDS011;68544;45.566;10.238;2024-02-26T09:19:54;5.13;;;2.13;;
79137;SDS011;68544;45.566;10.238;2024-02-26T09:22:19;3.63;;;1.90;;
79137;SDS011;68544;45.566;10.238;2024-02-26T09:24:45;3.23;;;2.10;;
79137;SDS011;68544;45.566;10.238;2024-02-26T09:27:10;2.93;;;1.93;;
79137;SDS011;68544;45.566;10.238;2024-02-26T09:29:35;3.00;;;2.10;;
79137;SDS011;68544;45.566;10.238;2024-02-26T09:32:01;3.37;;;2.23;;
79137;SDS011;68544;45.566;10.238;2024-02-26T09:34:26;2.40;;;1.80;;
79137;SDS011;68544;45.566;10.238;2024-02-26T09:36:52;2.83;;;1.53;;
79137;SDS011;68544;45.566;10.238;2024-02-26T09:39:17;2.90;;;1.50;;
79137;SDS011;68544;45.566;10.238;2024-02-26T09:41:46;3.40;;;1.50;;
79137;SDS011;68544;45.566;10.238;2024-02-26T09:44:12;3.00;;;1.45;;
79137;SDS011;68544;45.566;10.238;2024-02-26T09:46:40;4.00;;;1.70;;
79137;SDS011;68544;45.566;10.238;2024-02-26T09:49:06;3.73;;;1.77;;
79137;SDS011;68544;45.566;10.238;2024-02-26T09:51:33;2.28;;;1.52;;
79137;SDS011;68544;45.566;10.238;2024-02-26T09:53:59;2.90;;;1.50;;
79137;SDS011;68544;45.566;10.238;2024-02-26T09:56:25;2.78;;;1.77;;
79137;SDS011;68544;45.566;10.238;2024-02-26T09:58:51;2.65;;;1.70;;
79137;SDS011;68544;45.566;10.238;2024-02-26T10:01:19;3.70;;;1.80;;
79137;SDS011;68544;45.566;10.238;2024-02-26T10:03:51;6.63;;;3.85;;
79137;SDS011;68544;45.566;10.238;2024-02-26T10:06:20;6.22;;;5.32;;
79137;SDS011;68544;45.566;10.238;2024-02-26T10:08:46;7.25;;;4.80;;
79137;SDS011;68544;45.566;10.238;2024-02-26T10:11:13;6.25;;;4.55;;
79137;SDS011;68544;45.566;10.238;2024-02-26T10:13:39;5.63;;;4.70;;
79137;SDS011;68544;45.566;10.238;2024-02-26T10:16:05;8.43;;;5.10;;
79137;SDS011;68544;45.566;10.238;2024-02-26T10:18:50;8.48;;;5.60;;
79137;SDS011;68544;45.566;10.238;2024-02-26T10:21:16;5.18;;;2.60;;
79137;SDS011;68544;45.566;10.238;2024-02-26T10:26:09;3.47;;;1.98;;
79137;SDS011;68544;45.566;10.238;2024-02-26T10:28:36;3.38;;;1.85;;
79137;SDS011;68544;45.566;10.238;2024-02-26T10:31:01;4.43;;;2.20;;
79137;SDS011;68544;45.566;10.238;2024-02-26T10:33:27;3.20;;;1.87;;
79137;SDS011;68544;45.566;10.238;2024-02-26T10:35:52;3.30;;;2.13;;
79137;SDS011;68544;45.566;10.238;2024-02-26T10:38:22;4.35;;;2.33;;
79137;SDS011;68544;45.566;10.238;2024-02-26T10:40:50;4.20;;;2.15;;
79137;SDS011;68544;45.566;10.238;2024-02-26T10:43:16;3.22;;;2.50;;
79137;SDS011;68544;45.566;10.238;2024-02-26T10:45:42;5.20;;;2.30;;
79137;SDS011;68544;45.566;10.238;2024-02-26T10:48:12;2.95;;;2.20;;
79137;SDS011;68544;45.566;10.238;2024-02-26T10:50:38;3.72;;;2.53;;
79137;SDS011;68544;45.566;10.238;2024-02-26T10:53:05;3.38;;;2.72;;
79137;SDS011;68544;45.566;10.238;2024-02-26T10:55:37;3.38;;;2.67;;
79137;SDS011;68544;45.566;10.238;2024-02-26T10:58:03;3.75;;;2.70;;
79137;SDS011;68544;45.566;10.238;2024-02-26T11:00:29;3.83;;;2.50;;
79137;SDS011;68544;45.566;10.238;2024-02-26T11:02:56;5.80;;;3.20;;
79137;SDS011;68544;45.566;10.238;2024-02-26T11:05:26;3.85;;;2.60;;
79137;SDS011;68544;45.566;10.238;2024-02-26T11:07:53;3.47;;;2.15;;
79137;SDS011;68544;45.566;10.238;2024-02-26T11:10:19;3.72;;;2.65;;
79137;SDS011;68544;45.566;10.238;2024-02-26T11:12:45;7.33;;;2.90;;
79137;SDS011;68544;45.566;10.238;2024-02-26T11:15:11;3.40;;;2.33;;
79137;SDS011;68544;45.566;10.238;2024-02-26T11:17:37;3.63;;;2.20;;
79137;SDS011;68544;45.566;10.238;2024-02-26T11:22:30;2.38;;;1.95;;
79137;SDS011;68544;45.566;10.238;2024-02-26T11:24:56;4.07;;;2.35;;
79137;SDS011;68544;45.566;10.238;2024-02-26T11:29:51;3.15;;;2.25;;
79137;SDS011;68544;45.566;10.238;2024-02-26T11:32:19;4.30;;;2.35;;
79137;SDS011;68544;45.566;10.238;2024-02-26T11:34:45;4.00;;;1.90;;
79137;SDS011;68544;45.566;10.238;2024-02-26T11:39:37;4.03;;;3.17;;
79137;SDS011;68544;45.566;10.238;2024-02-26T11:42:14;3.50;;;2.60;;
79137;SDS011;68544;45.566;10.238;2024-02-26T11:44:40;4.78;;;3.00;;
79137;SDS011;68544;45.566;10.238;2024-02-26T11:47:11;6.57;;;3.70;;
79137;SDS011;68544;45.566;10.238;2024-02-26T11:49:38;5.40;;;3.40;;
79137;SDS011;68544;45.566;10.238;2024-02-26T11:52:10;7.55;;;3.63;;
79137;SDS011;68544;45.566;10.238;2024-02-26T11:54:46;4.50;;;3.50;;
79137;SDS011;68544;45.566;10.238;2024-02-26T11:57:22;4.57;;;3.50;;
79137;SDS011;68544;45.566;10.238;2024-02-26T11:59:50;6.47;;;4.25;;
79137;SDS011;68544;45.566;10.238;2024-02-26T12:05:16;4.05;;;3.50;;
79137;SDS011;68544;45.566;10.238;2024-02-26T12:07:59;5.05;;;3.80;;
79137;SDS011;68544;45.566;10.238;2024-02-26T12:11:26;5.50;;;3.80;;
79137;SDS011;68544;45.566;10.238;2024-02-26T12:14:53;4.85;;;2.85;;
79137;SDS011;68544;45.566;10.238;2024-02-26T12:18:17;10.45;;;2.45;;
79137;SDS011;68544;45.566;10.238;2024-02-26T12:21:41;3.92;;;2.42;;
79137;SDS011;68544;45.566;10.238;2024-02-26T12:25:06;5.35;;;2.35;;
79137;SDS011;68544;45.566;10.238;2024-02-26T12:27:34;3.35;;;2.17;;
79137;SDS011;68544;45.566;10.238;2024-02-26T12:30:01;3.72;;;2.30;;
79137;SDS011;68544;45.566;10.238;2024-02-26T12:33:25;3.92;;;2.17;;
79137;SDS011;68544;45.566;10.238;2024-02-26T12:35:52;3.17;;;2.55;;
79137;SDS011;68544;45.566;10.238;2024-02-26T12:38:18;4.13;;;2.03;;
79137;SDS011;68544;45.566;10.238;2024-02-26T12:41:42;3.55;;;1.98;;
79137;SDS011;68544;45.566;10.238;2024-02-26T12:45:09;3.28;;;1.80;;
79137;SDS011;68544;45.566;10.238;2024-02-26T12:47:39;1.77;;;1.30;;
79137;SDS011;68544;45.566;10.238;2024-02-26T12:50:17;2.45;;;1.40;;
79137;SDS011;68544;45.566;10.238;2024-02-26T12:52:43;2.90;;;1.43;;
79137;SDS011;68544;45.566;10.238;2024-02-26T12:56:08;2.30;;;1.27;;
79137;SDS011;68544;45.566;10.238;2024-02-26T12:59:34;2.00;;;1.10;;
79137;SDS011;68544;45.566;10.238;2024-02-26T13:02:59;1.38;;;0.88;;
79137;SDS011;68544;45.566;10.238;2024-02-26T13:06:25;1.80;;;1.13;;
79137;SDS011;68544;45.566;10.238;2024-02-26T13:09:49;2.95;;;1.08;;
79137;SDS011;68544;45.566;10.238;2024-02-26T13:12:52;2.50;;;0.95;;
79137;SDS011;68544;45.566;10.238;2024-02-26T13:15:19;2.42;;;1.00;;
79137;SDS011;68544;45.566;10.238;2024-02-26T13:18:44;1.58;;;0.90;;
79137;SDS011;68544;45.566;10.238;2024-02-26T13:22:14;1.95;;;0.70;;
79137;SDS011;68544;45.566;10.238;2024-02-26T13:25:38;1.23;;;0.70;;
79137;SDS011;68544;45.566;10.238;2024-02-26T13:29:02;1.45;;;0.70;;
79137;SDS011;68544;45.566;10.238;2024-02-26T13:32:33;1.00;;;0.60;;
79137;SDS011;68544;45.566;10.238;2024-02-26T13:35:57;1.15;;;0.50;;
79137;SDS011;68544;45.566;10.238;2024-02-26T13:39:25;1.42;;;0.88;;
79137;SDS011;68544;45.566;10.238;2024-02-26T13:42:49;1.70;;;0.60;;
79137;SDS011;68544;45.566;10.238;2024-02-26T13:46:13;1.00;;;0.50;;
79137;SDS011;68544;45.566;10.238;2024-02-26T13:49:38;0.88;;;0.40;;
79137;SDS011;68544;45.566;10.238;2024-02-26T13:53:02;0.82;;;0.40;;
79137;SDS011;68544;45.566;10.238;2024-02-26T13:56:26;0.50;;;0.32;;
79137;SDS011;68544;45.566;10.238;2024-02-26T13:59:50;1.17;;;0.40;;
79137;SDS011;68544;45.566;10.238;2024-02-26T14:03:14;0.55;;;0.35;;
79137;SDS011;68544;45.566;10.238;2024-02-26T14:06:38;0.75;;;0.40;;
79137;SDS011;68544;45.566;10.238;2024-02-26T14:10:03;0.45;;;0.30;;
79137;SDS011;68544;45.566;10.238;2024-02-26T14:13:27;0.75;;;0.50;;
79137;SDS011;68544;45.566;10.238;2024-02-26T14:16:52;1.33;;;0.50;;
79137;SDS011;68544;45.566;10.238;2024-02-26T14:20:20;1.05;;;0.60;;
79137;SDS011;68544;45.566;10.238;2024-02-26T14:22:47;1.27;;;0.45;;
79137;SDS011;68544;45.566;10.238;2024-02-26T14:25:13;1.20;;;0.60;;
79137;SDS011;68544;45.566;10.238;2024-02-26T14:27:38;0.83;;;0.40;;
79137;SDS011;68544;45.566;10.238;2024-02-26T14:30:04;0.97;;;0.53;;
79137;SDS011;68544;45.566;10.238;2024-02-26T14:32:29;0.88;;;0.50;;
79137;SDS011;68544;45.566;10.238;2024-02-26T14:34:59;0.70;;;0.40;;
79137;SDS011;68544;45.566;10.238;2024-02-26T14:37:25;0.90;;;0.43;;
79137;SDS011;68544;45.566;10.238;2024-02-26T14:39:50;1.00;;;0.50;;
79137;SDS011;68544;45.566;10.238;2024-02-26T14:42:17;1.42;;;1.17;;
79137;SDS011;68544;45.566;10.238;2024-02-26T14:44:43;0.73;;;0.50;;
79137;SDS011;68544;45.566;10.238;2024-02-26T14:47:08;0.80;;;0.57;;
79137;SDS011;68544;45.566;10.238;2024-02-26T14:49:34;1.00;;;0.50;;
79137;SDS011;68544;45.566;10.238;2024-02-26T14:51:59;0.63;;;0.47;;
79137;SDS011;68544;45.566;10.238;2024-02-26T14:54:24;1.40;;;0.60;;
79137;SDS011;68544;45.566;10.238;2024-02-26T14:56:50;1.47;;;0.77;;
79137;SDS011;68544;45.566;10.238;2024-02-26T14:59:15;0.90;;;0.40;;
79137;SDS011;68544;45.566;10.238;2024-02-26T15:01:40;1.93;;;0.63;;
79137;SDS011;68544;45.566;10.238;2024-02-26T15:04:06;0.87;;;0.50;;
79137;SDS011;68544;45.566;10.238;2024-02-26T15:06:31;1.90;;;0.77;;
79137;SDS011;68544;45.566;10.238;2024-02-26T15:08:56;2.10;;;0.63;;
79137;SDS011;68544;45.566;10.238;2024-02-26T15:11:22;1.17;;;0.67;;
79137;SDS011;68544;45.566;10.238;2024-02-26T15:13:47;0.80;;;0.50;;